Meteorología y climatología de Navarra
Datos de la estación - Meteo Navarra

Estación de Etxarri-Aranatz GN

Altitud 505 m.


Datos desde el 16/09/2020 hasta el 17/09/2020 en horario solar
Los datos son PROVISIONALES

Anterior Página 1 de 1 Siguiente Descargar: Formato para Excel 2000 o superior   Formato csv   Formato para OpenOffice Calc
Fecha Temperatura Humedad relativa Radiación global Insolación Precipitación Vel. viento 10 m Vel. viento 10 m Dir. viento 10 m
ºC % W/m² s l/m² m/s km/h º
16/09/2020 0:00 14.6 91 0.0 0 0.0 0.1 0.3 273
16/09/2020 0:10 14.0 91 0.0 0 0.0 0.7 2.5 190
16/09/2020 0:20 14.1 93 0.0 0 0.0 0.7 2.6 175
16/09/2020 0:30 14.1 93 0.0 0 0.0 0.7 2.4 171
16/09/2020 0:40 14.3 95 0.0 0 0.0 0.2 0.7 188
16/09/2020 0:50 14.4 94 0.0 0 0.0 0.7 2.6 329
16/09/2020 1:00 14.5 92 0.0 0 0.0 0.2 0.7 319
16/09/2020 1:10 13.7 90 0.0 0 0.0 0.2 0.6 231
16/09/2020 1:20 13.6 94 0.0 0 0.0 0.1 0.4 180
16/09/2020 1:30 13.4 93 0.0 0 0.0 0.6 2.2 148
16/09/2020 1:40 13.2 94 0.0 0 0.0 0.2 0.8 190
16/09/2020 1:50 13.4 95 0.0 0 0.0 0.0 0.1 215
16/09/2020 2:00 13.4 95 0.0 0 0.0 0.3 1.0 330
16/09/2020 2:10 13.2 93 0.0 0 0.0 0.3 1.0 205
16/09/2020 2:20 12.8 94 0.0 0 0.0 0.0 0.1 224
16/09/2020 2:30 12.7 95 0.0 0 0.0 0.4 1.4 180
16/09/2020 2:40 12.7 96 0.0 0 0.0 0.0 0.0 171
16/09/2020 2:50 12.7 95 0.0 0 0.0 0.2 0.6 196
16/09/2020 3:00 12.4 95 0.0 0 0.0 0.4 1.5 177
16/09/2020 3:10 12.6 96 0.0 0 0.0 0.2 0.8 173
16/09/2020 3:20 12.6 95 0.0 0 0.0 0.0 0.0 185
16/09/2020 3:30 12.2 94 0.0 0 0.0 0.1 0.4 188
16/09/2020 3:40 12.2 96 0.0 0 0.0 0.1 0.2 198
16/09/2020 3:50 12.1 96 0.0 0 0.0 0.3 1.1 179
16/09/2020 4:00 12.0 96 0.0 0 0.0 0.1 0.4 178
16/09/2020 4:10 12.2 96 0.0 0 0.0 0.0 0.0 0
16/09/2020 4:20 12.0 95 0.0 0 0.0 0.1 0.4 325
16/09/2020 4:30 11.7 95 0.0 0 0.0 0.1 0.3 340
16/09/2020 4:40 12.0 97 0.0 0 0.0 0.1 0.4 270
16/09/2020 4:50 11.7 95 0.0 0 0.0 0.1 0.4 197
16/09/2020 5:00 11.6 96 0.0 0 0.0 0.2 0.6 187
16/09/2020 5:10 11.7 97 0.0 0 0.0 0.1 0.5 182
16/09/2020 5:20 11.7 96 0.0 0 0.0 0.1 0.4 83
16/09/2020 5:30 11.7 96 0.0 0 0.0 0.1 0.4 94
16/09/2020 5:40 11.5 96 0.0 0 0.0 0.1 0.3 149
16/09/2020 5:50 11.5 97 0.0 0 0.0 0.3 1.0 263
16/09/2020 6:00 11.5 97 3.3 0 0.0 0.3 1.2 334
16/09/2020 6:10 11.9 97 30.7 324 0.0 0.3 1.2 26
16/09/2020 6:20 11.8 96 53.2 600 0.0 0.4 1.3 166
16/09/2020 6:30 12.0 97 69.8 600 0.0 0.7 2.6 164
16/09/2020 6:40 12.7 98 103.1 600 0.0 0.3 1.2 154
16/09/2020 6:50 13.0 98 123.7 600 0.0 0.3 1.1 257
16/09/2020 7:00 13.5 95 124.8 600 0.0 0.4 1.4 317
16/09/2020 7:10 13.9 93 146.1 600 0.0 0.3 1.1 314
16/09/2020 7:20 14.3 91 145.5 358 0.0 0.3 1.2 319
16/09/2020 7:30 14.7 91 137.3 130 0.0 0.1 0.4 286
16/09/2020 7:40 15.3 90 176.4 518 0.0 0.2 0.8 322
16/09/2020 7:50 15.9 89 233.1 600 0.0 0.2 0.6 98
16/09/2020 8:00 17.1 85 311.5 600 0.0 0.5 1.8 120
16/09/2020 8:10 18.0 82 293.9 600 0.0 0.4 1.5 79
16/09/2020 8:20 18.2 81 346.7 600 0.0 0.5 1.8 69
16/09/2020 8:30 18.7 78 392.6 600 0.0 0.6 2.3 68
16/09/2020 8:40 19.7 76 423.0 600 0.0 1.0 3.5 93
16/09/2020 8:50 20.5 72 445.7 600 0.0 0.6 2.3 79
16/09/2020 9:00 21.0 70 475.9 600 0.0 0.8 2.7 88
16/09/2020 9:10 21.9 67 510.2 600 0.0 0.7 2.4 95
16/09/2020 9:20 22.2 66 539.0 600 0.0 0.7 2.5 99
16/09/2020 9:30 23.1 63 562.9 600 0.0 0.5 1.6 19
16/09/2020 9:40 23.4 61 584.4 600 0.0 0.4 1.4 73
16/09/2020 9:50 24.3 57 609.5 600 0.0 0.7 2.6 50
16/09/2020 10:00 24.8 55 633.0 600 0.0 0.8 3.0 57
16/09/2020 10:10 26.1 53 657.1 600 0.0 1.0 3.7 58
16/09/2020 10:20 26.3 50 674.0 600 0.0 1.1 4.0 58
16/09/2020 10:30 27.1 47 690.9 600 0.0 0.9 3.2 58
16/09/2020 10:40 27.5 45 706.9 600 0.0 1.1 3.9 60
16/09/2020 10:50 28.2 43 720.9 600 0.0 1.1 3.8 59
16/09/2020 11:00 28.6 42 735.2 600 0.0 1.1 4.0 57
16/09/2020 11:10 28.2 42 746.0 600 0.0 1.0 3.6 44
16/09/2020 11:20 28.7 42 742.0 600 0.0 1.0 3.5 35
16/09/2020 11:30 28.8 41 506.5 362 0.0 0.9 3.1 6
16/09/2020 11:40 29.3 40 749.0 600 0.0 1.2 4.2 354
16/09/2020 11:50 29.3 40 751.9 600 0.0 1.8 6.3 330
16/09/2020 12:00 29.3 38 753.6 600 0.0 1.6 5.7 321
16/09/2020 12:10 29.9 37 628.7 484 0.0 1.5 5.3 326
16/09/2020 12:20 29.3 37 718.6 538 0.0 1.6 5.8 316
16/09/2020 12:30 30.1 36 781.0 590 0.0 0.7 2.6 312
16/09/2020 12:40 31.2 34 765.2 600 0.0 1.9 6.9 155
16/09/2020 12:50 31.3 33 737.6 600 0.0 0.9 3.2 40
16/09/2020 13:00 31.0 34 733.4 600 0.0 0.9 3.4 11
16/09/2020 13:10 30.5 34 711.0 600 0.0 1.2 4.1 335
16/09/2020 13:20 31.0 35 696.4 600 0.0 1.0 3.6 58
16/09/2020 13:30 31.2 32 679.4 600 0.0 1.2 4.5 35
16/09/2020 13:40 31.4 32 667.6 600 0.0 1.0 3.6 41
16/09/2020 13:50 31.0 32 458.8 372 0.0 1.1 3.9 41
16/09/2020 14:00 30.9 31 540.3 450 0.0 0.7 2.6 36
16/09/2020 14:10 31.3 31 627.7 600 0.0 1.2 4.4 53
16/09/2020 14:20 31.6 30 613.9 600 0.0 0.9 3.4 49
16/09/2020 14:30 32.0 28 437.9 480 0.0 1.9 6.8 114
16/09/2020 14:40 31.1 28 567.8 600 0.0 1.1 3.9 352
16/09/2020 14:50 31.3 29 540.4 600 0.0 1.1 4.1 40
16/09/2020 15:00 31.3 28 393.9 496 0.0 1.0 3.7 25
16/09/2020 15:10 30.6 29 211.6 64 0.0 1.1 3.9 40
16/09/2020 15:20 30.5 30 469.5 600 0.0 1.0 3.5 59
16/09/2020 15:30 31.5 28 378.9 600 0.0 0.8 2.8 61
16/09/2020 15:40 31.3 27 277.8 412 0.0 0.7 2.3 48
16/09/2020 15:50 30.5 34 269.0 600 0.0 1.1 4.0 43
16/09/2020 16:00 30.2 36 308.5 600 0.0 0.9 3.3 18
16/09/2020 16:10 30.0 40 267.3 600 0.0 0.7 2.6 23
16/09/2020 16:20 29.6 45 244.5 600 0.0 1.0 3.7 33
16/09/2020 16:30 29.0 45 226.9 600 0.0 1.2 4.2 20
16/09/2020 16:40 28.9 44 207.8 600 0.0 1.1 4.0 36
16/09/2020 16:50 28.6 45 170.0 600 0.0 1.5 5.3 41
16/09/2020 17:00 28.3 47 162.0 600 0.0 1.0 3.5 53
16/09/2020 17:10 28.0 48 124.8 580 0.0 0.8 2.8 54
16/09/2020 17:20 27.6 49 70.2 50 0.0 0.8 3.0 57
16/09/2020 17:30 27.1 51 42.2 0 0.0 0.6 2.2 50
16/09/2020 17:40 26.2 53 30.5 0 0.0 0.8 2.8 52
16/09/2020 17:50 26.0 54 24.1 0 0.0 0.8 2.8 55
16/09/2020 18:00 25.4 56 8.3 0 0.0 0.7 2.7 55
16/09/2020 18:10 24.7 57 0.0 0 0.0 0.6 2.2 43
16/09/2020 18:20 24.7 57 0.0 0 0.0 0.8 2.7 15
16/09/2020 18:30 24.9 57 0.0 0 0.0 1.0 3.5 326
16/09/2020 18:40 24.5 59 0.0 0 0.0 0.8 2.9 325
16/09/2020 18:50 24.3 60 0.0 0 0.0 0.8 3.0 313
16/09/2020 19:00 23.8 62 0.0 0 0.0 0.8 2.8 293
16/09/2020 19:10 23.6 65 0.0 0 0.0 0.8 2.7 304
16/09/2020 19:20 23.7 66 0.0 0 0.0 0.7 2.4 303
16/09/2020 19:30 23.1 69 0.0 0 0.0 1.3 4.8 334
16/09/2020 19:40 22.2 72 0.0 0 0.0 0.9 3.3 326
16/09/2020 19:50 21.6 74 0.0 0 0.0 0.8 2.9 315
16/09/2020 20:00 21.6 75 0.0 0 0.0 0.6 2.0 335
16/09/2020 20:10 21.1 77 0.0 0 0.0 0.7 2.4 314
16/09/2020 20:20 21.2 77 0.0 0 0.0 0.4 1.6 334
16/09/2020 20:30 20.8 78 0.0 0 0.0 0.7 2.7 335
16/09/2020 20:40 20.3 79 0.0 0 0.0 0.4 1.4 11
16/09/2020 20:50 19.9 81 0.0 0 0.0 0.2 0.5 266
16/09/2020 21:00 19.9 83 0.0 0 0.0 0.1 0.4 181
16/09/2020 21:10 19.4 81 0.0 0 0.0 0.6 2.3 164
16/09/2020 21:20 19.0 82 0.0 0 0.0 0.4 1.5 168
16/09/2020 21:30 18.6 82 0.0 0 0.0 0.7 2.7 205
16/09/2020 21:40 18.3 83 0.0 0 0.0 0.6 2.2 175
16/09/2020 21:50 18.1 83 0.0 0 0.0 0.5 1.8 188
16/09/2020 22:00 17.9 83 0.0 0 0.0 0.6 2.3 217
16/09/2020 22:10 17.6 84 0.0 0 0.0 0.5 1.8 250
16/09/2020 22:20 17.6 86 0.0 0 0.0 0.5 1.7 326
16/09/2020 22:30 17.7 87 0.0 0 0.0 0.6 2.3 309
16/09/2020 22:40 17.1 85 0.0 0 0.0 0.2 0.8 234
16/09/2020 22:50 16.8 88 0.0 0 0.0 0.6 2.0 164
16/09/2020 23:00 16.1 86 0.0 0 0.0 0.9 3.3 184
16/09/2020 23:10 15.9 89 0.0 0 0.0 0.4 1.5 169
16/09/2020 23:20 15.8 88 0.0 0 0.0 0.4 1.3 250
16/09/2020 23:30 15.6 90 0.0 0 0.0 0.2 0.6 183
16/09/2020 23:40 15.2 88 0.0 0 0.0 0.4 1.3 211
16/09/2020 23:50 15.3 91 0.0 0 0.0 0.3 1.0 264
Anterior Página 1 de 1 Siguiente

NOTA: Tipo de datos según el color:
   - Valores diarios o 10 minutos correctos
   - Valores diarios calculados a partir de un número de datos 10 minutos menor que 144 y mayor que 120, o de un número de datos semihorarios menor que 48 y mayor que 40 (caso de las estaciones de INTIA y del Ministerio)
   - Valores diez minutos estimados


Contacto        Enlaces        Aviso legal